New Minden, Illinois
Current Conditions -  °F | °C
As of 6:35 AM on Saturday 25 Oct 2014 (Local Time) from KSAR Reporting Station
Clear Clear  
Wind Chill: 58°   Ceiling: Unl
Heat Index: 58°   Visibility: 10mi
Dew Point: 56°   Wind: 3mph
Humidity: 91%   Direction: 220°SW
Pressure: 30.02"   Gusts: NA
Location:  38.318°N, 89.3879°W
Report Text: KSAR 251135Z AUTO 22003KT 10SM CLR 15/13 A3002 RMK AO2 T01460131
Loading
Personal Weather Stations






























Interactive Weather Map
Tropical Storm Tracking
New forecast layout! Learn more

10-Day Weather Forecast

Advertisements
Track Severe Weather on mobile